sensor_id;sensor_type;location;lat;lon;timestamp;temperature;humidity
782;DHT22;374;52.568;13.402;2023-03-01T00:01:13;1.10;99.90
782;DHT22;374;52.568;13.402;2023-03-01T00:03:39;1.10;99.90
782;DHT22;374;52.568;13.402;2023-03-01T00:06:05;1.10;99.90
782;DHT22;374;52.568;13.402;2023-03-01T00:08:31;1.10;99.90
782;DHT22;374;52.568;13.402;2023-03-01T00:13:30;1.00;99.90
782;DHT22;374;52.568;13.402;2023-03-01T00:15:55;1.00;99.90
782;DHT22;374;52.568;13.402;2023-03-01T00:18:21;1.00;99.90
782;DHT22;374;52.568;13.402;2023-03-01T00:20:55;1.00;99.90
782;DHT22;374;52.568;13.402;2023-03-01T00:23:21;1.00;99.90
782;DHT22;374;52.568;13.402;2023-03-01T00:25:47;1.00;99.90
782;DHT22;374;52.568;13.402;2023-03-01T00:28:12;1.00;99.90
782;DHT22;374;52.568;13.402;2023-03-01T00:30:38;0.90;99.90
782;DHT22;374;52.568;13.402;2023-03-01T00:33:03;0.90;99.90
782;DHT22;374;52.568;13.402;2023-03-01T00:35:29;0.90;99.90
782;DHT22;374;52.568;13.402;2023-03-01T00:37:56;0.90;99.90
782;DHT22;374;52.568;13.402;2023-03-01T00:40:33;0.90;99.90
782;DHT22;374;52.568;13.402;2023-03-01T00:42:59;0.90;99.90
782;DHT22;374;52.568;13.402;2023-03-01T00:45:25;0.90;99.90
782;DHT22;374;52.568;13.402;2023-03-01T00:47:51;0.90;99.90
782;DHT22;374;52.568;13.402;2023-03-01T00:50:17;0.90;99.90
782;DHT22;374;52.568;13.402;2023-03-01T00:52:43;0.80;99.90
782;DHT22;374;52.568;13.402;2023-03-01T00:55:10;0.80;99.90
782;DHT22;374;52.568;13.402;2023-03-01T00:57:36;0.80;99.90
782;DHT22;374;52.568;13.402;2023-03-01T01:00:03;0.80;99.90
782;DHT22;374;52.568;13.402;2023-03-01T01:02:29;0.70;99.90
782;DHT22;374;52.568;13.402;2023-03-01T01:04:55;0.70;99.90
782;DHT22;374;52.568;13.402;2023-03-01T01:07:20;0.70;99.90
782;DHT22;374;52.568;13.402;2023-03-01T01:09:46;0.70;99.90
782;DHT22;374;52.568;13.402;2023-03-01T01:12:12;0.70;99.90
782;DHT22;374;52.568;13.402;2023-03-01T01:14:37;0.60;99.90
782;DHT22;374;52.568;13.402;2023-03-01T01:17:04;0.60;99.90
782;DHT22;374;52.568;13.402;2023-03-01T01:19:30;0.60;99.90
782;DHT22;374;52.568;13.402;2023-03-01T01:21:55;0.60;99.90
782;DHT22;374;52.568;13.402;2023-03-01T01:24:21;0.60;99.90
782;DHT22;374;52.568;13.402;2023-03-01T01:26:47;0.60;99.90
782;DHT22;374;52.568;13.402;2023-03-01T01:29:12;0.60;99.90
782;DHT22;374;52.568;13.402;2023-03-01T01:31:40;0.60;99.90
782;DHT22;374;52.568;13.402;2023-03-01T01:34:08;0.60;99.90
782;DHT22;374;52.568;13.402;2023-03-01T01:36:34;0.50;99.90
782;DHT22;374;52.568;13.402;2023-03-01T01:39:01;0.50;99.90
782;DHT22;374;52.568;13.402;2023-03-01T01:41:28;0.50;99.90
782;DHT22;374;52.568;13.402;2023-03-01T01:44:22;0.50;99.90
782;DHT22;374;52.568;13.402;2023-03-01T01:47:06;0.40;99.90
782;DHT22;374;52.568;13.402;2023-03-01T01:49:53;0.40;99.90
782;DHT22;374;52.568;13.402;2023-03-01T01:52:29;0.40;99.90
782;DHT22;374;52.568;13.402;2023-03-01T01:55:02;0.40;99.90
782;DHT22;374;52.568;13.402;2023-03-01T01:57:38;0.40;99.90
782;DHT22;374;52.568;13.402;2023-03-01T02:00:12;0.30;99.90
782;DHT22;374;52.568;13.402;2023-03-01T02:02:38;0.30;99.90
782;DHT22;374;52.568;13.402;2023-03-01T02:07:56;0.40;99.90
782;DHT22;374;52.568;13.402;2023-03-01T02:10:23;0.30;99.90
782;DHT22;374;52.568;13.402;2023-03-01T02:12:51;0.30;99.90
782;DHT22;374;52.568;13.402;2023-03-01T02:15:17;0.30;99.90
782;DHT22;374;52.568;13.402;2023-03-01T02:17:42;0.30;99.90
782;DHT22;374;52.568;13.402;2023-03-01T02:20:23;0.40;99.90
782;DHT22;374;52.568;13.402;2023-03-01T02:22:52;0.30;99.90
782;DHT22;374;52.568;13.402;2023-03-01T02:25:40;0.40;99.90
782;DHT22;374;52.568;13.402;2023-03-01T02:30:47;0.40;99.90
782;DHT22;374;52.568;13.402;2023-03-01T02:33:33;0.40;99.90
782;DHT22;374;52.568;13.402;2023-03-01T02:36:03;0.40;99.90
782;DHT22;374;52.568;13.402;2023-03-01T02:38:30;0.40;99.90
782;DHT22;374;52.568;13.402;2023-03-01T02:40:56;0.30;99.90
782;DHT22;374;52.568;13.402;2023-03-01T02:43:25;0.40;99.90
782;DHT22;374;52.568;13.402;2023-03-01T02:45:53;0.30;99.90
782;DHT22;374;52.568;13.402;2023-03-01T02:48:19;0.30;99.90
782;DHT22;374;52.568;13.402;2023-03-01T02:50:53;0.30;99.90
782;DHT22;374;52.568;13.402;2023-03-01T02:53:41;0.30;99.90
782;DHT22;374;52.568;13.402;2023-03-01T02:56:11;0.20;99.90
782;DHT22;374;52.568;13.402;2023-03-01T02:58:41;0.20;99.90
782;DHT22;374;52.568;13.402;2023-03-01T03:01:10;0.20;99.90
782;DHT22;374;52.568;13.402;2023-03-01T03:03:35;0.20;99.90
782;DHT22;374;52.568;13.402;2023-03-01T03:06:01;0.10;99.90
782;DHT22;374;52.568;13.402;2023-03-01T03:08:26;0.20;99.90
782;DHT22;374;52.568;13.402;2023-03-01T03:10:52;0.10;99.90
782;DHT22;374;52.568;13.402;2023-03-01T03:13:18;0.10;99.90
782;DHT22;374;52.568;13.402;2023-03-01T03:15:44;0.10;99.90
782;DHT22;374;52.568;13.402;2023-03-01T03:18:12;0.10;99.90
782;DHT22;374;52.568;13.402;2023-03-01T03:20:39;0.10;99.90
782;DHT22;374;52.568;13.402;2023-03-01T03:23:05;0.10;99.90
782;DHT22;374;52.568;13.402;2023-03-01T03:25:30;0.10;99.90
782;DHT22;374;52.568;13.402;2023-03-01T03:27:57;0.00;99.90
782;DHT22;374;52.568;13.402;2023-03-01T03:30:25;0.00;99.90
782;DHT22;374;52.568;13.402;2023-03-01T03:32:51;0.00;99.90
782;DHT22;374;52.568;13.402;2023-03-01T03:35:23;0.00;99.90
782;DHT22;374;52.568;13.402;2023-03-01T03:37:50;0.00;99.90
782;DHT22;374;52.568;13.402;2023-03-01T03:40:31;0.00;99.90
782;DHT22;374;52.568;13.402;2023-03-01T03:42:56;-0.10;99.90
782;DHT22;374;52.568;13.402;2023-03-01T03:45:22;-0.10;99.90
782;DHT22;374;52.568;13.402;2023-03-01T03:47:48;-0.10;99.90
782;DHT22;374;52.568;13.402;2023-03-01T03:50:14;-0.10;99.90
782;DHT22;374;52.568;13.402;2023-03-01T03:52:40;-0.20;99.90
782;DHT22;374;52.568;13.402;2023-03-01T03:55:07;-0.20;99.90
782;DHT22;374;52.568;13.402;2023-03-01T03:57:37;-0.20;99.90
782;DHT22;374;52.568;13.402;2023-03-01T04:00:04;-0.20;99.90
782;DHT22;374;52.568;13.402;2023-03-01T04:02:30;-0.20;99.90
782;DHT22;374;52.568;13.402;2023-03-01T04:04:56;-0.20;99.90
782;DHT22;374;52.568;13.402;2023-03-01T04:07:22;-0.30;99.90
782;DHT22;374;52.568;13.402;2023-03-01T04:09:47;-0.20;99.90
782;DHT22;374;52.568;13.402;2023-03-01T04:12:12;-0.20;99.90
782;DHT22;374;52.568;13.402;2023-03-01T04:14:38;-0.30;99.90
782;DHT22;374;52.568;13.402;2023-03-01T04:17:03;-0.30;99.90
782;DHT22;374;52.568;13.402;2023-03-01T04:19:33;-0.30;99.90
782;DHT22;374;52.568;13.402;2023-03-01T04:22:04;-0.30;99.90
782;DHT22;374;52.568;13.402;2023-03-01T04:24:35;-0.30;99.90
782;DHT22;374;52.568;13.402;2023-03-01T04:27:00;-0.30;99.90
782;DHT22;374;52.568;13.402;2023-03-01T04:29:26;-0.30;99.90
782;DHT22;374;52.568;13.402;2023-03-01T04:31:51;-0.20;99.90
782;DHT22;374;52.568;13.402;2023-03-01T04:34:18;-0.20;99.90
782;DHT22;374;52.568;13.402;2023-03-01T04:36:43;-0.20;99.90
782;DHT22;374;52.568;13.402;2023-03-01T04:39:09;-0.30;99.90
782;DHT22;374;52.568;13.402;2023-03-01T04:41:38;-0.20;99.90
782;DHT22;374;52.568;13.402;2023-03-01T04:44:04;-0.30;99.90
782;DHT22;374;52.568;13.402;2023-03-01T04:46:30;-0.20;99.90
782;DHT22;374;52.568;13.402;2023-03-01T04:48:55;-0.30;99.90
782;DHT22;374;52.568;13.402;2023-03-01T04:51:21;-0.30;99.90
782;DHT22;374;52.568;13.402;2023-03-01T04:53:46;-0.30;99.90
782;DHT22;374;52.568;13.402;2023-03-01T04:56:13;-0.40;99.90
782;DHT22;374;52.568;13.402;2023-03-01T04:58:43;-0.40;99.90
782;DHT22;374;52.568;13.402;2023-03-01T05:01:11;-0.30;99.90
782;DHT22;374;52.568;13.402;2023-03-01T05:03:41;-0.40;99.90
782;DHT22;374;52.568;13.402;2023-03-01T05:06:07;-0.40;99.90
782;DHT22;374;52.568;13.402;2023-03-01T05:08:32;-0.40;99.90
782;DHT22;374;52.568;13.402;2023-03-01T05:10:59;-0.40;99.90
782;DHT22;374;52.568;13.402;2023-03-01T05:13:25;-0.40;99.90
782;DHT22;374;52.568;13.402;2023-03-01T05:15:59;-0.40;99.90
782;DHT22;374;52.568;13.402;2023-03-01T05:18:27;-0.40;99.90
782;DHT22;374;52.568;13.402;2023-03-01T05:20:54;-0.50;99.90
782;DHT22;374;52.568;13.402;2023-03-01T05:23:22;-0.40;99.90
782;DHT22;374;52.568;13.402;2023-03-01T05:25:47;-0.50;99.90
782;DHT22;374;52.568;13.402;2023-03-01T05:28:14;-0.50;99.90
782;DHT22;374;52.568;13.402;2023-03-01T05:30:40;-0.40;99.90
782;DHT22;374;52.568;13.402;2023-03-01T05:33:06;-0.40;99.90
782;DHT22;374;52.568;13.402;2023-03-01T05:35:42;-0.40;99.90
782;DHT22;374;52.568;13.402;2023-03-01T05:38:09;-0.40;99.90
782;DHT22;374;52.568;13.402;2023-03-01T05:40:39;-0.50;99.90
782;DHT22;374;52.568;13.402;2023-03-01T05:43:05;-0.50;99.90
782;DHT22;374;52.568;13.402;2023-03-01T05:45:31;-0.50;99.90
782;DHT22;374;52.568;13.402;2023-03-01T05:47:58;-0.50;99.90
782;DHT22;374;52.568;13.402;2023-03-01T05:50:25;-0.50;99.90
782;DHT22;374;52.568;13.402;2023-03-01T05:53:06;-0.50;99.90
782;DHT22;374;52.568;13.402;2023-03-01T05:55:33;-0.50;99.90
782;DHT22;374;52.568;13.402;2023-03-01T05:58:00;-0.50;99.90
782;DHT22;374;52.568;13.402;2023-03-01T06:00:26;-0.50;99.90
782;DHT22;374;52.568;13.402;2023-03-01T06:02:53;-0.60;99.90
782;DHT22;374;52.568;13.402;2023-03-01T06:05:19;-0.50;99.90
782;DHT22;374;52.568;13.402;2023-03-01T06:07:45;-0.50;99.90
782;DHT22;374;52.568;13.402;2023-03-01T06:10:12;-0.50;99.90
782;DHT22;374;52.568;13.402;2023-03-01T06:12:39;-0.50;99.90
782;DHT22;374;52.568;13.402;2023-03-01T06:15:06;-0.50;99.90
782;DHT22;374;52.568;13.402;2023-03-01T06:17:33;-0.50;99.90
782;DHT22;374;52.568;13.402;2023-03-01T06:20:03;-0.50;99.90
782;DHT22;374;52.568;13.402;2023-03-01T06:22:29;-0.50;99.90
782;DHT22;374;52.568;13.402;2023-03-01T06:24:54;-0.50;99.90
782;DHT22;374;52.568;13.402;2023-03-01T06:27:20;-0.50;99.90
782;DHT22;374;52.568;13.402;2023-03-01T06:29:45;-0.50;99.90
782;DHT22;374;52.568;13.402;2023-03-01T06:32:11;-0.50;99.90
782;DHT22;374;52.568;13.402;2023-03-01T06:34:36;-0.50;99.90
782;DHT22;374;52.568;13.402;2023-03-01T06:37:02;-0.50;99.90
782;DHT22;374;52.568;13.402;2023-03-01T06:39:30;-0.40;99.90
782;DHT22;374;52.568;13.402;2023-03-01T06:41:56;-0.40;99.90
782;DHT22;374;52.568;13.402;2023-03-01T06:44:21;-0.40;99.90
782;DHT22;374;52.568;13.402;2023-03-01T06:46:47;-0.40;99.90
782;DHT22;374;52.568;13.402;2023-03-01T06:49:12;-0.40;99.90
782;DHT22;374;52.568;13.402;2023-03-01T06:51:39;-0.30;99.90
782;DHT22;374;52.568;13.402;2023-03-01T06:54:05;-0.40;99.90
782;DHT22;374;52.568;13.402;2023-03-01T06:56:31;-0.30;99.90
782;DHT22;374;52.568;13.402;2023-03-01T06:58:57;-0.30;99.90
782;DHT22;374;52.568;13.402;2023-03-01T07:01:23;-0.30;99.90
782;DHT22;374;52.568;13.402;2023-03-01T07:03:48;-0.20;99.90
782;DHT22;374;52.568;13.402;2023-03-01T07:06:14;-0.20;99.90
782;DHT22;374;52.568;13.402;2023-03-01T07:08:39;-0.20;99.90
782;DHT22;374;52.568;13.402;2023-03-01T07:11:05;-0.20;99.90
782;DHT22;374;52.568;13.402;2023-03-01T07:13:31;-0.20;99.90
782;DHT22;374;52.568;13.402;2023-03-01T07:15:57;-0.20;99.90
782;DHT22;374;52.568;13.402;2023-03-01T07:18:23;-0.10;99.90
782;DHT22;374;52.568;13.402;2023-03-01T07:20:48;-0.10;99.90
782;DHT22;374;52.568;13.402;2023-03-01T07:23:14;-0.10;99.90
782;DHT22;374;52.568;13.402;2023-03-01T07:25:40;0.00;99.90
782;DHT22;374;52.568;13.402;2023-03-01T07:28:06;0.00;99.90
782;DHT22;374;52.568;13.402;2023-03-01T07:30:32;0.00;99.90
782;DHT22;374;52.568;13.402;2023-03-01T07:32:58;0.00;99.90
782;DHT22;374;52.568;13.402;2023-03-01T07:35:27;0.00;99.90
782;DHT22;374;52.568;13.402;2023-03-01T07:37:53;0.10;99.90
782;DHT22;374;52.568;13.402;2023-03-01T07:40:19;0.20;99.90
782;DHT22;374;52.568;13.402;2023-03-01T07:42:44;0.20;99.90
782;DHT22;374;52.568;13.402;2023-03-01T07:45:10;0.30;99.90
782;DHT22;374;52.568;13.402;2023-03-01T07:47:36;0.40;99.90
782;DHT22;374;52.568;13.402;2023-03-01T07:50:03;0.50;99.90
782;DHT22;374;52.568;13.402;2023-03-01T07:52:29;0.70;99.90
782;DHT22;374;52.568;13.402;2023-03-01T07:54:56;0.70;99.90
782;DHT22;374;52.568;13.402;2023-03-01T07:57:21;0.80;99.90
782;DHT22;374;52.568;13.402;2023-03-01T07:59:47;0.90;99.90
782;DHT22;374;52.568;13.402;2023-03-01T08:02:12;1.00;99.90
782;DHT22;374;52.568;13.402;2023-03-01T08:04:40;1.20;99.90
782;DHT22;374;52.568;13.402;2023-03-01T08:07:06;1.40;99.90
782;DHT22;374;52.568;13.402;2023-03-01T08:09:33;1.50;99.90
782;DHT22;374;52.568;13.402;2023-03-01T08:11:59;1.50;99.90
782;DHT22;374;52.568;13.402;2023-03-01T08:14:25;1.60;99.90
782;DHT22;374;52.568;13.402;2023-03-01T08:16:50;1.70;99.90
782;DHT22;374;52.568;13.402;2023-03-01T08:19:16;1.80;99.90
782;DHT22;374;52.568;13.402;2023-03-01T08:21:41;2.00;99.90
782;DHT22;374;52.568;13.402;2023-03-01T08:24:07;2.10;99.90
782;DHT22;374;52.568;13.402;2023-03-01T08:26:35;2.20;99.90
782;DHT22;374;52.568;13.402;2023-03-01T08:29:01;2.60;99.90
782;DHT22;374;52.568;13.402;2023-03-01T08:31:32;2.50;99.90
782;DHT22;374;52.568;13.402;2023-03-01T08:33:59;2.60;99.90
782;DHT22;374;52.568;13.402;2023-03-01T08:36:27;2.80;99.90
782;DHT22;374;52.568;13.402;2023-03-01T08:38:53;2.80;99.90
782;DHT22;374;52.568;13.402;2023-03-01T08:41:20;2.90;99.90
782;DHT22;374;52.568;13.402;2023-03-01T08:43:45;3.00;99.90
782;DHT22;374;52.568;13.402;2023-03-01T08:46:11;3.20;99.90
782;DHT22;374;52.568;13.402;2023-03-01T08:48:37;3.30;99.90
782;DHT22;374;52.568;13.402;2023-03-01T08:51:14;3.30;99.90
782;DHT22;374;52.568;13.402;2023-03-01T08:53:40;3.30;99.90
782;DHT22;374;52.568;13.402;2023-03-01T08:56:07;3.40;99.90
782;DHT22;374;52.568;13.402;2023-03-01T08:58:32;3.60;99.90
782;DHT22;374;52.568;13.402;2023-03-01T09:00:58;3.70;99.90
782;DHT22;374;52.568;13.402;2023-03-01T09:03:24;3.80;99.90
782;DHT22;374;52.568;13.402;2023-03-01T09:05:51;3.90;99.90
782;DHT22;374;52.568;13.402;2023-03-01T09:08:17;4.00;99.90
782;DHT22;374;52.568;13.402;2023-03-01T09:10:43;4.00;99.90
782;DHT22;374;52.568;13.402;2023-03-01T09:13:09;4.00;99.90
782;DHT22;374;52.568;13.402;2023-03-01T09:15:37;4.10;99.90
782;DHT22;374;52.568;13.402;2023-03-01T09:18:02;4.20;99.90
782;DHT22;374;52.568;13.402;2023-03-01T09:20:28;4.40;99.90
782;DHT22;374;52.568;13.402;2023-03-01T09:22:56;4.60;99.90
782;DHT22;374;52.568;13.402;2023-03-01T09:25:21;4.80;99.90
782;DHT22;374;52.568;13.402;2023-03-01T09:27:47;5.10;99.90
782;DHT22;374;52.568;13.402;2023-03-01T09:30:13;5.30;99.90
782;DHT22;374;52.568;13.402;2023-03-01T09:32:40;5.70;99.90
782;DHT22;374;52.568;13.402;2023-03-01T09:35:08;6.00;99.90
782;DHT22;374;52.568;13.402;2023-03-01T09:37:35;6.40;99.90
782;DHT22;374;52.568;13.402;2023-03-01T09:40:01;6.70;99.90
782;DHT22;374;52.568;13.402;2023-03-01T09:42:30;7.10;99.90
782;DHT22;374;52.568;13.402;2023-03-01T09:45:11;7.50;99.90
782;DHT22;374;52.568;13.402;2023-03-01T09:47:44;8.00;99.30
782;DHT22;374;52.568;13.402;2023-03-01T09:50:13;8.10;97.30
782;DHT22;374;52.568;13.402;2023-03-01T09:52:47;8.40;97.20
782;DHT22;374;52.568;13.402;2023-03-01T09:55:17;8.40;97.20
782;DHT22;374;52.568;13.402;2023-03-01T09:58:03;8.20;96.00
782;DHT22;374;52.568;13.402;2023-03-01T10:00:51;7.90;96.50
782;DHT22;374;52.568;13.402;2023-03-01T10:03:31;7.50;97.20
782;DHT22;374;52.568;13.402;2023-03-01T10:06:08;7.20;97.30
782;DHT22;374;52.568;13.402;2023-03-01T10:11:21;6.60;97.40
782;DHT22;374;52.568;13.402;2023-03-01T10:14:05;6.40;96.80
782;DHT22;374;52.568;13.402;2023-03-01T10:19:27;6.00;97.00
782;DHT22;374;52.568;13.402;2023-03-01T10:21:58;5.80;96.80
782;DHT22;374;52.568;13.402;2023-03-01T10:24:27;5.70;97.10
782;DHT22;374;52.568;13.402;2023-03-01T10:26:57;5.60;98.20
782;DHT22;374;52.568;13.402;2023-03-01T10:29:31;5.50;97.40
782;DHT22;374;52.568;13.402;2023-03-01T10:32:00;5.40;98.00
782;DHT22;374;52.568;13.402;2023-03-01T10:34:31;5.40;98.50
782;DHT22;374;52.568;13.402;2023-03-01T10:39:35;5.20;97.40
782;DHT22;374;52.568;13.402;2023-03-01T10:42:03;5.10;97.10
782;DHT22;374;52.568;13.402;2023-03-01T10:44:48;5.00;97.00
782;DHT22;374;52.568;13.402;2023-03-01T10:47:21;5.00;97.00
782;DHT22;374;52.568;13.402;2023-03-01T10:49:56;5.00;96.30
782;DHT22;374;52.568;13.402;2023-03-01T10:52:28;5.00;96.80
782;DHT22;374;52.568;13.402;2023-03-01T10:55:04;5.00;97.00
782;DHT22;374;52.568;13.402;2023-03-01T10:57:46;5.00;96.90
782;DHT22;374;52.568;13.402;2023-03-01T11:00:25;5.00;96.30
782;DHT22;374;52.568;13.402;2023-03-01T11:03:04;5.00;95.00
782;DHT22;374;52.568;13.402;2023-03-01T11:05:34;5.00;95.30
782;DHT22;374;52.568;13.402;2023-03-01T11:08:02;4.90;95.70
782;DHT22;374;52.568;13.402;2023-03-01T11:10:34;4.90;96.10
782;DHT22;374;52.568;13.402;2023-03-01T11:13:18;4.90;96.00
782;DHT22;374;52.568;13.402;2023-03-01T11:15:58;4.90;95.40
782;DHT22;374;52.568;13.402;2023-03-01T11:18:25;4.90;94.90
782;DHT22;374;52.568;13.402;2023-03-01T11:20:53;4.90;95.10
782;DHT22;374;52.568;13.402;2023-03-01T11:23:20;4.90;95.40
782;DHT22;374;52.568;13.402;2023-03-01T11:25:55;4.80;95.10
782;DHT22;374;52.568;13.402;2023-03-01T11:28:21;4.80;94.50
782;DHT22;374;52.568;13.402;2023-03-01T11:33:24;4.80;94.80
782;DHT22;374;52.568;13.402;2023-03-01T11:36:16;4.80;95.20
782;DHT22;374;52.568;13.402;2023-03-01T11:38:43;4.90;95.20
782;DHT22;374;52.568;13.402;2023-03-01T11:41:20;4.90;94.90
782;DHT22;374;52.568;13.402;2023-03-01T11:43:57;4.90;95.80
782;DHT22;374;52.568;13.402;2023-03-01T11:46:32;5.00;95.80
782;DHT22;374;52.568;13.402;2023-03-01T11:55:16;5.00;95.00
782;DHT22;374;52.568;13.402;2023-03-01T11:58:12;5.00;94.70
782;DHT22;374;52.568;13.402;2023-03-01T12:01:06;5.10;93.90
782;DHT22;374;52.568;13.402;2023-03-01T12:09:30;5.10;93.90
782;DHT22;374;52.568;13.402;2023-03-01T12:14:43;5.10;92.70
782;DHT22;374;52.568;13.402;2023-03-01T12:17:34;5.10;92.70
782;DHT22;374;52.568;13.402;2023-03-01T12:20:25;5.10;90.80
782;DHT22;374;52.568;13.402;2023-03-01T12:23:24;5.10;91.60
782;DHT22;374;52.568;13.402;2023-03-01T12:28:47;5.20;88.30
782;DHT22;374;52.568;13.402;2023-03-01T12:34:39;5.20;90.90
782;DHT22;374;52.568;13.402;2023-03-01T12:37:32;5.30;90.00
782;DHT22;374;52.568;13.402;2023-03-01T12:43:09;5.30;91.00
782;DHT22;374;52.568;13.402;2023-03-01T12:48:25;5.30;93.00
782;DHT22;374;52.568;13.402;2023-03-01T12:50:59;5.30;93.00
782;DHT22;374;52.568;13.402;2023-03-01T12:53:29;5.30;93.50
782;DHT22;374;52.568;13.402;2023-03-01T12:56:00;5.30;93.80
782;DHT22;374;52.568;13.402;2023-03-01T12:58:44;5.30;92.60
782;DHT22;374;52.568;13.402;2023-03-01T13:01:26;5.30;92.30
782;DHT22;374;52.568;13.402;2023-03-01T13:17:49;5.50;88.40
782;DHT22;374;52.568;13.402;2023-03-01T13:20:24;5.50;86.20
782;DHT22;374;52.568;13.402;2023-03-01T13:23:47;5.50;88.60
782;DHT22;374;52.568;13.402;2023-03-01T13:26:05;5.50;90.00
782;DHT22;374;52.568;13.402;2023-03-01T13:28:53;5.50;90.00
782;DHT22;374;52.568;13.402;2023-03-01T13:33:52;5.50;90.60
782;DHT22;374;52.568;13.402;2023-03-01T13:38:56;5.50;90.80
782;DHT22;374;52.568;13.402;2023-03-01T13:47:16;5.50;91.30
782;DHT22;374;52.568;13.402;2023-03-01T13:49:49;5.50;91.10
782;DHT22;374;52.568;13.402;2023-03-01T13:54:58;5.50;92.70
782;DHT22;374;52.568;13.402;2023-03-01T13:57:32;5.50;93.40
782;DHT22;374;52.568;13.402;2023-03-01T13:59:59;5.50;94.00
782;DHT22;374;52.568;13.402;2023-03-01T14:02:24;5.50;93.80
782;DHT22;374;52.568;13.402;2023-03-01T14:04:57;5.50;94.30
782;DHT22;374;52.568;13.402;2023-03-01T14:07:24;5.50;93.80
782;DHT22;374;52.568;13.402;2023-03-01T14:10:11;5.50;93.60
782;DHT22;374;52.568;13.402;2023-03-01T14:15:22;5.50;95.00
782;DHT22;374;52.568;13.402;2023-03-01T14:20:43;5.60;94.10
782;DHT22;374;52.568;13.402;2023-03-01T14:23:13;5.60;93.90
782;DHT22;374;52.568;13.402;2023-03-01T14:25:51;5.70;93.10
782;DHT22;374;52.568;13.402;2023-03-01T14:31:01;5.80;92.10
782;DHT22;374;52.568;13.402;2023-03-01T14:33:29;5.80;92.10
782;DHT22;374;52.568;13.402;2023-03-01T14:36:08;5.90;92.50
782;DHT22;374;52.568;13.402;2023-03-01T14:41:16;5.90;92.90
782;DHT22;374;52.568;13.402;2023-03-01T14:43:44;5.90;91.70
782;DHT22;374;52.568;13.402;2023-03-01T14:46:30;5.90;92.70
782;DHT22;374;52.568;13.402;2023-03-01T14:49:04;5.90;93.10
782;DHT22;374;52.568;13.402;2023-03-01T14:51:34;5.90;92.20
782;DHT22;374;52.568;13.402;2023-03-01T14:54:00;5.90;92.60
782;DHT22;374;52.568;13.402;2023-03-01T14:56:25;5.90;92.00
782;DHT22;374;52.568;13.402;2023-03-01T14:58:52;5.90;93.00
782;DHT22;374;52.568;13.402;2023-03-01T15:01:18;5.90;93.30
782;DHT22;374;52.568;13.402;2023-03-01T15:03:49;5.90;92.70
782;DHT22;374;52.568;13.402;2023-03-01T15:06:18;5.90;93.10
782;DHT22;374;52.568;13.402;2023-03-01T15:08:55;5.90;92.70
782;DHT22;374;52.568;13.402;2023-03-01T15:11:33;5.90;92.30
782;DHT22;374;52.568;13.402;2023-03-01T15:20:47;6.00;92.80
782;DHT22;374;52.568;13.402;2023-03-01T15:23:27;5.80;90.50
782;DHT22;374;52.568;13.402;2023-03-01T15:25:54;6.00;90.90
782;DHT22;374;52.568;13.402;2023-03-01T15:28:25;6.00;91.80
782;DHT22;374;52.568;13.402;2023-03-01T15:31:19;6.00;93.00
782;DHT22;374;52.568;13.402;2023-03-01T15:37:47;6.10;92.10
782;DHT22;374;52.568;13.402;2023-03-01T15:40:25;5.80;91.60
782;DHT22;374;52.568;13.402;2023-03-01T15:42:57;6.00;92.60
782;DHT22;374;52.568;13.402;2023-03-01T15:45:25;6.00;93.00
782;DHT22;374;52.568;13.402;2023-03-01T15:48:03;6.00;93.70
782;DHT22;374;52.568;13.402;2023-03-01T15:50:32;6.00;93.90
782;DHT22;374;52.568;13.402;2023-03-01T15:53:00;5.90;94.70
782;DHT22;374;52.568;13.402;2023-03-01T15:55:28;6.00;93.90
782;DHT22;374;52.568;13.402;2023-03-01T15:58:05;6.00;94.30
782;DHT22;374;52.568;13.402;2023-03-01T16:00:32;5.90;95.00
782;DHT22;374;52.568;13.402;2023-03-01T16:02:58;5.90;94.10
782;DHT22;374;52.568;13.402;2023-03-01T16:05:26;5.90;94.80
782;DHT22;374;52.568;13.402;2023-03-01T16:07:52;5.90;93.90
782;DHT22;374;52.568;13.402;2023-03-01T16:10:18;6.00;92.40
782;DHT22;374;52.568;13.402;2023-03-01T16:12:44;6.00;92.70
782;DHT22;374;52.568;13.402;2023-03-01T16:15:28;6.00;93.00
782;DHT22;374;52.568;13.402;2023-03-01T16:17:54;6.00;93.70
782;DHT22;374;52.568;13.402;2023-03-01T16:20:19;6.00;93.30
782;DHT22;374;52.568;13.402;2023-03-01T16:22:46;6.00;92.50
782;DHT22;374;52.568;13.402;2023-03-01T16:25:13;6.00;92.90
782;DHT22;374;52.568;13.402;2023-03-01T16:27:42;6.00;92.90
782;DHT22;374;52.568;13.402;2023-03-01T16:30:08;6.00;92.70
782;DHT22;374;52.568;13.402;2023-03-01T16:32:41;6.00;93.60
782;DHT22;374;52.568;13.402;2023-03-01T16:35:08;6.00;94.30
782;DHT22;374;52.568;13.402;2023-03-01T16:37:35;5.90;95.00
782;DHT22;374;52.568;13.402;2023-03-01T16:40:01;5.90;95.70
782;DHT22;374;52.568;13.402;2023-03-01T16:42:27;5.90;96.20
782;DHT22;374;52.568;13.402;2023-03-01T16:44:56;5.90;96.30
782;DHT22;374;52.568;13.402;2023-03-01T16:47:22;5.90;96.50
782;DHT22;374;52.568;13.402;2023-03-01T16:49:50;5.90;95.80
782;DHT22;374;52.568;13.402;2023-03-01T16:52:18;5.90;96.10
782;DHT22;374;52.568;13.402;2023-03-01T16:54:43;5.80;96.40
782;DHT22;374;52.568;13.402;2023-03-01T16:57:09;5.80;96.80
782;DHT22;374;52.568;13.402;2023-03-01T16:59:35;5.80;96.90
782;DHT22;374;52.568;13.402;2023-03-01T17:02:00;5.80;97.20
782;DHT22;374;52.568;13.402;2023-03-01T17:04:25;5.80;97.60
782;DHT22;374;52.568;13.402;2023-03-01T17:06:51;5.70;98.00
782;DHT22;374;52.568;13.402;2023-03-01T17:09:16;5.70;98.30
782;DHT22;374;52.568;13.402;2023-03-01T17:11:42;5.70;98.70
782;DHT22;374;52.568;13.402;2023-03-01T17:14:08;5.60;98.60
782;DHT22;374;52.568;13.402;2023-03-01T17:16:33;5.60;98.90
782;DHT22;374;52.568;13.402;2023-03-01T17:18:59;5.60;99.10
782;DHT22;374;52.568;13.402;2023-03-01T17:21:26;5.60;99.30
782;DHT22;374;52.568;13.402;2023-03-01T17:23:55;5.50;99.30
782;DHT22;374;52.568;13.402;2023-03-01T17:26:21;5.90;99.60
782;DHT22;374;52.568;13.402;2023-03-01T17:28:47;5.50;99.70
782;DHT22;374;52.568;13.402;2023-03-01T17:31:16;5.50;99.40
782;DHT22;374;52.568;13.402;2023-03-01T17:33:42;5.50;99.60
782;DHT22;374;52.568;13.402;2023-03-01T17:36:08;5.50;99.80
782;DHT22;374;52.568;13.402;2023-03-01T17:38:35;5.50;99.80
782;DHT22;374;52.568;13.402;2023-03-01T17:41:02;5.40;99.90
782;DHT22;374;52.568;13.402;2023-03-01T17:43:28;5.40;99.90
782;DHT22;374;52.568;13.402;2023-03-01T17:45:55;5.20;99.90
782;DHT22;374;52.568;13.402;2023-03-01T17:48:21;5.40;99.90
782;DHT22;374;52.568;13.402;2023-03-01T17:50:49;5.30;99.90
782;DHT22;374;52.568;13.402;2023-03-01T17:53:15;5.40;99.90
782;DHT22;374;52.568;13.402;2023-03-01T17:55:42;5.30;99.90
782;DHT22;374;52.568;13.402;2023-03-01T17:58:09;5.30;99.90
782;DHT22;374;52.568;13.402;2023-03-01T18:00:36;5.30;99.90
782;DHT22;374;52.568;13.402;2023-03-01T18:03:02;5.30;99.90
782;DHT22;374;52.568;13.402;2023-03-01T18:05:33;5.30;99.90
782;DHT22;374;52.568;13.402;2023-03-01T18:08:05;5.30;99.90
782;DHT22;374;52.568;13.402;2023-03-01T18:10:32;5.20;99.90
782;DHT22;374;52.568;13.402;2023-03-01T18:13:01;5.90;99.90
782;DHT22;374;52.568;13.402;2023-03-01T18:15:26;5.10;99.90
782;DHT22;374;52.568;13.402;2023-03-01T18:17:53;5.20;99.90
782;DHT22;374;52.568;13.402;2023-03-01T18:20:18;5.10;99.90